createdAt,value
2023-02-19T00:01:35.231Z,3.10
2023-02-19T00:04:02.822Z,2.00
2023-02-19T00:06:30.366Z,1.00
2023-02-19T00:08:57.939Z,2.80
2023-02-19T00:11:25.539Z,1.10
2023-02-19T00:13:53.200Z,0.90
2023-02-19T00:16:20.693Z,0.60
2023-02-19T00:18:48.263Z,0.40
2023-02-19T00:21:15.786Z,0.60
2023-02-19T00:23:43.264Z,0.40
2023-02-19T00:26:18.250Z,0.80
2023-02-19T00:28:46.582Z,1.80
2023-02-19T00:31:14.485Z,3.20
2023-02-19T00:33:42.223Z,0.40
2023-02-19T00:36:09.778Z,0.50
2023-02-19T00:38:37.746Z,0.50
2023-02-19T00:41:19.087Z,0.30
2023-02-19T00:43:46.794Z,1.50
2023-02-19T00:46:14.332Z,0.80
2023-02-19T00:48:43.122Z,4.90
2023-02-19T00:51:11.027Z,2.30
2023-02-19T00:53:38.969Z,0.40
2023-02-19T00:56:06.755Z,0.40
2023-02-19T00:58:34.622Z,0.30
2023-02-19T01:01:02.168Z,0.70
2023-02-19T01:03:29.741Z,0.60
2023-02-19T01:05:57.407Z,0.50
2023-02-19T01:08:25.021Z,0.70
2023-02-19T01:10:52.538Z,0.60
2023-02-19T01:13:20.345Z,1.20
2023-02-19T01:15:47.863Z,1.90
2023-02-19T01:18:15.439Z,2.50
2023-02-19T01:20:42.946Z,1.40
2023-02-19T01:23:10.441Z,1.90
2023-02-19T01:25:37.899Z,1.40
2023-02-19T01:28:05.410Z,1.00
2023-02-19T01:30:33.015Z,1.50
2023-02-19T01:33:00.570Z,1.20
2023-02-19T01:35:28.301Z,1.10
2023-02-19T01:37:55.783Z,1.20
2023-02-19T01:40:23.288Z,1.30
2023-02-19T01:42:50.774Z,0.90
2023-02-19T01:45:18.707Z,0.80
2023-02-19T01:47:46.172Z,1.10
2023-02-19T01:50:13.669Z,1.10
2023-02-19T01:52:41.170Z,0.60
2023-02-19T01:55:08.683Z,1.40
2023-02-19T01:57:36.305Z,1.20
2023-02-19T02:00:04.163Z,1.80
2023-02-19T02:02:31.699Z,0.90
2023-02-19T02:05:00.238Z,0.90
2023-02-19T02:07:46.473Z,1.20
2023-02-19T02:10:20.301Z,0.90
2023-02-19T02:12:47.794Z,1.10
2023-02-19T02:15:16.242Z,1.30
2023-02-19T02:17:43.985Z,1.00
2023-02-19T02:20:11.469Z,1.30
2023-02-19T02:22:39.061Z,1.10
2023-02-19T02:25:06.655Z,0.90
2023-02-19T02:27:34.222Z,1.10
2023-02-19T02:30:01.811Z,1.20
2023-02-19T02:32:29.562Z,1.30
2023-02-19T02:34:57.196Z,1.70
2023-02-19T02:37:24.831Z,1.40
2023-02-19T02:39:52.556Z,1.10
2023-02-19T02:42:29.361Z,1.70
2023-02-19T02:45:15.766Z,1.20
2023-02-19T02:47:44.837Z,1.60
2023-02-19T02:50:12.449Z,1.90
2023-02-19T02:52:58.953Z,2.40
2023-02-19T02:55:26.485Z,2.00
2023-02-19T02:57:54.074Z,1.70
2023-02-19T03:00:21.893Z,2.00
2023-02-19T03:02:49.403Z,2.00
2023-02-19T03:05:36.124Z,2.10
2023-02-19T03:08:03.616Z,2.50
2023-02-19T03:10:31.072Z,2.40
2023-02-19T03:13:17.704Z,2.40
2023-02-19T03:16:04.102Z,1.60
2023-02-19T03:18:50.673Z,1.90
2023-02-19T03:21:18.193Z,1.80
2023-02-19T03:24:04.397Z,2.80
2023-02-19T03:26:31.958Z,3.40
2023-02-19T03:29:18.251Z,5.40
2023-02-19T03:31:45.921Z,4.80
2023-02-19T03:34:14.431Z,4.40
2023-02-19T03:36:42.333Z,3.60
2023-02-19T03:39:11.064Z,3.60
2023-02-19T03:41:38.620Z,2.70
2023-02-19T03:44:06.235Z,2.00
2023-02-19T03:46:33.729Z,1.70
2023-02-19T03:49:01.283Z,1.80
2023-02-19T03:51:28.929Z,1.30
2023-02-19T03:53:56.453Z,2.50
2023-02-19T03:56:24.229Z,2.30
2023-02-19T03:58:51.853Z,2.40
2023-02-19T04:01:19.510Z,2.00
2023-02-19T04:03:47.007Z,2.00
2023-02-19T04:06:14.632Z,1.70
2023-02-19T04:08:42.089Z,1.90
2023-02-19T04:11:09.945Z,1.70
2023-02-19T04:13:37.708Z,1.80
2023-02-19T04:16:05.278Z,1.90
2023-02-19T04:18:32.801Z,1.50
2023-02-19T04:21:00.442Z,1.30
2023-02-19T04:23:27.928Z,1.60
2023-02-19T04:25:55.530Z,2.00
2023-02-19T04:28:23.031Z,1.70
2023-02-19T04:30:50.609Z,1.30
2023-02-19T04:33:18.233Z,1.40
2023-02-19T04:35:45.791Z,1.30
2023-02-19T04:38:14.456Z,1.50
2023-02-19T04:40:44.922Z,1.40
2023-02-19T04:43:12.489Z,1.20
2023-02-19T04:45:40.014Z,1.50
2023-02-19T04:48:07.612Z,1.20
2023-02-19T04:50:35.211Z,1.50
2023-02-19T04:53:02.720Z,1.20
2023-02-19T04:55:30.256Z,1.00
2023-02-19T04:57:57.751Z,1.30
2023-02-19T05:00:25.419Z,1.20
2023-02-19T05:02:53.103Z,1.30
2023-02-19T05:05:20.669Z,0.90
2023-02-19T05:07:48.175Z,1.10
2023-02-19T05:10:15.656Z,1.20
2023-02-19T05:12:43.174Z,1.00
2023-02-19T05:15:10.721Z,1.00
2023-02-19T05:17:38.253Z,1.10
2023-02-19T05:20:05.826Z,1.00
2023-02-19T05:22:33.298Z,1.60
2023-02-19T05:25:01.246Z,1.30
2023-02-19T05:27:28.762Z,1.20
2023-02-19T05:29:56.229Z,1.10
2023-02-19T05:32:23.844Z,1.40
2023-02-19T05:34:51.564Z,1.50
2023-02-19T05:37:19.191Z,1.80
2023-02-19T05:39:46.751Z,2.00
2023-02-19T05:42:14.753Z,1.90
2023-02-19T05:44:42.291Z,1.90
2023-02-19T05:47:09.958Z,2.00
2023-02-19T05:49:37.675Z,1.50
2023-02-19T05:52:05.278Z,2.50
2023-02-19T05:54:32.887Z,2.70
2023-02-19T05:57:00.694Z,2.40
2023-02-19T05:59:31.005Z,2.40
2023-02-19T06:01:58.712Z,2.00
2023-02-19T06:04:26.370Z,1.90
2023-02-19T06:06:54.363Z,1.70
2023-02-19T06:09:21.895Z,1.60
2023-02-19T06:11:49.475Z,2.10
2023-02-19T06:14:17.027Z,1.60
2023-02-19T06:16:44.538Z,1.70
2023-02-19T06:19:12.096Z,1.60
2023-02-19T06:21:39.704Z,1.80
2023-02-19T06:24:07.302Z,1.80
2023-02-19T06:26:34.968Z,1.80
2023-02-19T06:29:02.460Z,2.20
2023-02-19T06:31:30.133Z,2.30
2023-02-19T06:33:58.134Z,1.70
2023-02-19T06:36:25.754Z,1.30
2023-02-19T06:38:53.391Z,1.80
2023-02-19T06:41:21.059Z,1.60
2023-02-19T06:43:48.691Z,1.30
2023-02-19T06:46:16.324Z,1.60
2023-02-19T06:48:43.917Z,0.90
2023-02-19T06:51:11.733Z,1.20
2023-02-19T06:53:39.371Z,1.00
2023-02-19T06:56:06.959Z,0.90
2023-02-19T06:58:34.448Z,1.00
2023-02-19T07:01:01.965Z,1.10
2023-02-19T07:03:29.809Z,1.60
2023-02-19T07:05:58.373Z,1.60
2023-02-19T07:08:27.937Z,1.60
2023-02-19T07:10:56.969Z,1.80
2023-02-19T07:13:24.691Z,1.60
2023-02-19T07:15:52.507Z,0.90
2023-02-19T07:18:20.232Z,1.20
2023-02-19T07:20:47.740Z,1.30
2023-02-19T07:23:17.363Z,1.00
2023-02-19T07:25:44.953Z,0.80
2023-02-19T07:28:12.459Z,0.80
2023-02-19T07:30:39.979Z,0.50
2023-02-19T07:33:10.099Z,0.60
2023-02-19T07:35:38.072Z,0.60
2023-02-19T07:38:05.698Z,0.60
2023-02-19T07:40:33.243Z,0.60
2023-02-19T07:43:00.899Z,0.40
2023-02-19T07:45:28.510Z,0.40
2023-02-19T07:47:57.572Z,0.40
2023-02-19T07:50:25.074Z,0.40
2023-02-19T07:52:52.748Z,0.50
2023-02-19T07:55:20.436Z,0.50
2023-02-19T07:57:48.021Z,0.50
2023-02-19T08:00:15.637Z,0.50
2023-02-19T08:03:01.699Z,0.40
2023-02-19T08:05:30.471Z,0.50
2023-02-19T08:07:58.182Z,0.60
2023-02-19T08:10:44.600Z,0.50
2023-02-19T08:13:25.275Z,0.60
2023-02-19T08:15:53.008Z,0.70
2023-02-19T08:18:20.592Z,0.30
2023-02-19T08:20:48.589Z,0.40
2023-02-19T08:23:16.313Z,0.50
2023-02-19T08:25:45.987Z,0.70
2023-02-19T08:28:13.490Z,0.60
2023-02-19T08:30:41.282Z,0.50
2023-02-19T08:33:08.869Z,0.70
2023-02-19T08:35:37.046Z,1.10
2023-02-19T08:38:04.655Z,0.90
2023-02-19T08:40:32.222Z,1.40
2023-02-19T08:42:59.805Z,1.40
2023-02-19T08:45:27.390Z,1.40
2023-02-19T08:47:54.899Z,1.40
2023-02-19T08:50:22.449Z,1.60
2023-02-19T08:52:50.035Z,1.40
2023-02-19T08:55:17.949Z,1.30
2023-02-19T08:57:45.667Z,0.90
2023-02-19T09:00:13.241Z,1.30
2023-02-19T09:02:40.838Z,1.00
2023-02-19T09:05:08.487Z,1.00
2023-02-19T09:07:35.999Z,0.80
2023-02-19T09:10:03.784Z,0.40
2023-02-19T09:12:31.339Z,0.80
2023-02-19T09:14:58.981Z,0.70
2023-02-19T09:17:26.450Z,2.70
2023-02-19T09:19:54.173Z,2.50
2023-02-19T09:22:21.815Z,1.70
2023-02-19T09:24:49.573Z,2.80
2023-02-19T09:27:17.142Z,1.10
2023-02-19T09:29:44.668Z,0.70
2023-02-19T09:32:12.252Z,1.00
2023-02-19T09:34:39.843Z,1.30
2023-02-19T09:37:07.835Z,0.70
2023-02-19T09:39:35.449Z,0.60
2023-02-19T09:42:02.910Z,1.30
2023-02-19T09:44:30.946Z,1.00
2023-02-19T09:46:58.508Z,0.70
2023-02-19T09:49:26.121Z,0.50
2023-02-19T09:51:53.847Z,0.60
2023-02-19T09:54:21.821Z,0.80
2023-02-19T09:56:52.403Z,0.80
2023-02-19T09:59:37.066Z,0.90
2023-02-19T10:02:04.656Z,1.10
2023-02-19T10:04:32.199Z,0.90
2023-02-19T10:07:03.560Z,0.80
2023-02-19T10:09:31.191Z,1.10
2023-02-19T10:11:59.064Z,1.00
2023-02-19T10:14:26.643Z,1.20
2023-02-19T10:16:54.289Z,1.00
2023-02-19T10:19:21.799Z,0.80
2023-02-19T10:21:49.536Z,1.20
2023-02-19T10:24:17.086Z,4.10
2023-02-19T10:26:44.621Z,2.40
2023-02-19T10:29:12.428Z,0.30
2023-02-19T10:31:40.039Z,0.40
2023-02-19T10:34:07.936Z,0.30
2023-02-19T10:36:35.827Z,0.40
2023-02-19T10:39:03.489Z,0.40
2023-02-19T10:41:31.062Z,0.20
2023-02-19T10:43:58.640Z,0.30
2023-02-19T10:46:27.495Z,0.40
2023-02-19T10:48:55.173Z,1.10
2023-02-19T10:51:23.032Z,1.40
2023-02-19T10:53:50.543Z,1.30
2023-02-19T10:56:18.167Z,1.10
2023-02-19T10:58:47.415Z,2.20
2023-02-19T11:01:15.123Z,1.90
2023-02-19T11:03:42.738Z,2.80
2023-02-19T11:06:10.626Z,1.60
2023-02-19T11:08:38.259Z,1.60
2023-02-19T11:11:06.006Z,1.50
2023-02-19T11:13:37.929Z,1.20
2023-02-19T11:16:05.605Z,1.00
2023-02-19T11:18:33.414Z,0.80
2023-02-19T11:21:00.981Z,1.00
2023-02-19T11:23:28.853Z,0.80
2023-02-19T11:25:57.394Z,1.00
2023-02-19T11:28:25.313Z,1.90
2023-02-19T11:30:52.946Z,1.60
2023-02-19T11:33:20.438Z,1.80
2023-02-19T11:35:48.306Z,1.90
2023-02-19T11:38:15.810Z,2.10
2023-02-19T11:40:43.482Z,2.10
2023-02-19T11:43:11.105Z,1.70
2023-02-19T11:45:38.878Z,2.50
2023-02-19T11:48:06.368Z,2.40
2023-02-19T11:50:33.979Z,4.10
2023-02-19T11:53:01.678Z,5.60
2023-02-19T11:55:29.208Z,4.20
2023-02-19T11:57:56.921Z,4.40
2023-02-19T12:00:24.991Z,4.30
2023-02-19T12:02:54.201Z,5.40
2023-02-19T12:05:23.075Z,6.70
2023-02-19T12:07:50.669Z,7.60
2023-02-19T12:10:18.197Z,10.30
2023-02-19T12:12:45.989Z,9.00
2023-02-19T12:15:13.731Z,7.10
2023-02-19T12:17:41.331Z,3.80
2023-02-19T12:20:09.769Z,4.60
2023-02-19T12:22:38.566Z,2.70
2023-02-19T12:25:06.107Z,5.30
2023-02-19T12:27:33.862Z,7.40
2023-02-19T12:30:01.696Z,5.60
2023-02-19T12:32:29.322Z,5.50
2023-02-19T12:34:56.956Z,5.00
2023-02-19T12:37:24.613Z,5.80
2023-02-19T12:39:52.103Z,4.10
2023-02-19T12:42:19.756Z,3.80
2023-02-19T12:44:47.519Z,3.80
2023-02-19T12:47:15.049Z,2.60
2023-02-19T12:49:42.566Z,2.00
2023-02-19T12:52:10.329Z,1.60
2023-02-19T12:54:38.169Z,1.70
2023-02-19T12:57:06.026Z,1.70
2023-02-19T12:59:33.537Z,1.40
2023-02-19T13:02:01.125Z,1.60
2023-02-19T13:04:28.777Z,3.40
2023-02-19T13:06:56.236Z,2.30
2023-02-19T13:09:23.677Z,2.20
2023-02-19T13:11:51.297Z,1.50
2023-02-19T13:14:18.910Z,1.90
2023-02-19T13:16:46.639Z,1.80
2023-02-19T13:19:15.274Z,3.40
2023-02-19T13:22:01.575Z,2.80
2023-02-19T13:24:29.167Z,4.00
2023-02-19T13:26:56.714Z,8.90
2023-02-19T13:29:24.233Z,7.00
2023-02-19T13:31:51.887Z,4.70
2023-02-19T13:34:19.616Z,2.20
2023-02-19T13:36:48.775Z,2.70
2023-02-19T13:39:16.462Z,2.30
2023-02-19T13:41:43.952Z,2.30
2023-02-19T13:44:11.471Z,3.60
2023-02-19T13:46:39.043Z,5.90
2023-02-19T13:49:06.523Z,6.70
2023-02-19T13:51:34.043Z,10.40
2023-02-19T13:54:01.906Z,7.70
2023-02-19T13:56:29.374Z,10.30
2023-02-19T13:58:57.144Z,7.20
2023-02-19T14:01:24.770Z,3.70
2023-02-19T14:03:52.394Z,2.80
2023-02-19T14:06:19.948Z,13.00
2023-02-19T14:08:48.301Z,3.70
2023-02-19T14:11:16.269Z,2.30
2023-02-19T14:13:43.761Z,1.20
2023-02-19T14:16:11.487Z,1.50
2023-02-19T14:18:39.454Z,1.70
2023-02-19T14:21:06.987Z,1.80
2023-02-19T14:23:34.674Z,1.70
2023-02-19T14:26:04.336Z,2.50
2023-02-19T14:28:33.524Z,1.40
2023-02-19T14:31:01.238Z,2.20
2023-02-19T14:33:28.901Z,2.10
2023-02-19T14:35:56.719Z,2.20
2023-02-19T14:38:24.601Z,2.10
2023-02-19T14:40:53.252Z,2.30
2023-02-19T14:43:20.832Z,2.20
2023-02-19T14:45:48.372Z,1.50
2023-02-19T14:48:15.932Z,2.90
2023-02-19T14:50:43.632Z,2.10
2023-02-19T14:53:11.266Z,2.50
2023-02-19T14:55:38.720Z,1.60
2023-02-19T14:58:06.188Z,1.20
2023-02-19T15:00:33.917Z,2.00
2023-02-19T15:03:02.735Z,1.50
2023-02-19T15:05:30.368Z,1.20
2023-02-19T15:07:58.002Z,1.40
2023-02-19T15:10:25.645Z,2.30
2023-02-19T15:12:53.247Z,2.40
2023-02-19T15:15:20.906Z,2.10
2023-02-19T15:17:48.464Z,1.60
2023-02-19T15:20:16.415Z,1.60
2023-02-19T15:22:44.843Z,1.20
2023-02-19T15:25:12.610Z,1.80
2023-02-19T15:27:40.397Z,0.90
2023-02-19T15:30:08.323Z,1.20
2023-02-19T15:32:36.134Z,0.80
2023-02-19T15:35:03.829Z,0.80
2023-02-19T15:37:31.423Z,1.30
2023-02-19T15:39:58.905Z,1.50
2023-02-19T15:42:26.480Z,1.70
2023-02-19T15:44:54.170Z,1.20
2023-02-19T15:47:21.916Z,1.10
2023-02-19T15:49:49.725Z,0.90
2023-02-19T15:52:17.316Z,1.00
2023-02-19T15:54:45.046Z,1.30
2023-02-19T15:57:13.965Z,1.50
2023-02-19T15:59:41.858Z,1.10
2023-02-19T16:02:09.340Z,1.60
2023-02-19T16:04:37.104Z,1.00
2023-02-19T16:07:04.785Z,0.90
2023-02-19T16:09:32.712Z,0.90
2023-02-19T16:12:01.229Z,0.90
2023-02-19T16:14:31.901Z,0.80
2023-02-19T16:16:59.923Z,1.40
2023-02-19T16:19:28.548Z,1.30
2023-02-19T16:21:56.351Z,0.70
2023-02-19T16:24:24.009Z,1.00
2023-02-19T16:26:51.958Z,1.30
2023-02-19T16:29:19.697Z,0.90
2023-02-19T16:31:47.325Z,1.90
2023-02-19T16:34:14.915Z,1.60
2023-02-19T16:36:43.638Z,2.50
2023-02-19T16:39:12.985Z,2.00
2023-02-19T16:41:40.453Z,5.70
2023-02-19T16:44:08.072Z,2.70
2023-02-19T16:46:35.764Z,12.70
2023-02-19T16:49:03.448Z,19.80
2023-02-19T16:51:31.062Z,4.60
2023-02-19T16:53:58.835Z,2.30
2023-02-19T16:56:26.315Z,3.60
2023-02-19T16:58:54.054Z,6.20
2023-02-19T17:01:21.584Z,5.40
2023-02-19T17:03:52.234Z,6.30
2023-02-19T17:06:20.036Z,3.20
2023-02-19T17:08:47.543Z,2.00
2023-02-19T17:11:15.024Z,2.70
2023-02-19T17:13:42.551Z,3.10
2023-02-19T17:16:11.003Z,5.80
2023-02-19T17:18:38.538Z,4.20
2023-02-19T17:21:06.436Z,3.80
2023-02-19T17:23:34.257Z,2.80
2023-02-19T17:26:01.816Z,2.00
2023-02-19T17:28:29.412Z,3.60
2023-02-19T17:30:56.876Z,22.50
2023-02-19T17:33:24.502Z,3.80
2023-02-19T17:35:52.098Z,16.30
2023-02-19T17:38:19.720Z,8.30
2023-02-19T17:40:48.796Z,6.00
2023-02-19T17:43:16.477Z,4.50
2023-02-19T17:45:44.075Z,2.80
2023-02-19T17:48:11.671Z,2.10
2023-02-19T17:50:39.383Z,1.70
2023-02-19T17:53:07.120Z,2.40
2023-02-19T17:55:34.737Z,7.70
2023-02-19T17:58:02.455Z,4.00
2023-02-19T18:00:31.643Z,1.20
2023-02-19T18:02:59.207Z,2.70
2023-02-19T18:05:27.137Z,1.20
2023-02-19T18:07:54.636Z,2.00
2023-02-19T18:10:23.364Z,2.00
2023-02-19T18:12:50.886Z,1.70
2023-02-19T18:15:18.392Z,2.00
2023-02-19T18:17:46.826Z,1.50
2023-02-19T18:20:14.716Z,2.40
2023-02-19T18:22:43.295Z,1.30
2023-02-19T18:25:11.247Z,5.20
2023-02-19T18:27:39.036Z,2.30
2023-02-19T18:30:06.572Z,2.30
2023-02-19T18:32:34.114Z,2.70
2023-02-19T18:35:02.000Z,2.30
2023-02-19T18:37:31.330Z,4.10
2023-02-19T18:39:59.213Z,5.40
2023-02-19T18:42:27.064Z,5.30
2023-02-19T18:44:54.682Z,14.40
2023-02-19T18:47:22.459Z,11.50
2023-02-19T18:49:50.025Z,7.50
2023-02-19T18:52:20.307Z,5.40
2023-02-19T18:54:48.379Z,10.60
2023-02-19T18:57:15.985Z,5.50
2023-02-19T18:59:43.564Z,2.40
2023-02-19T19:02:11.300Z,4.60
2023-02-19T19:04:39.008Z,4.20
2023-02-19T19:07:06.513Z,5.10
2023-02-19T19:09:35.553Z,3.70
2023-02-19T19:12:03.120Z,2.20
2023-02-19T19:14:30.688Z,2.70
2023-02-19T19:16:58.164Z,2.60
2023-02-19T19:19:25.733Z,2.40
2023-02-19T19:21:53.515Z,2.90
2023-02-19T19:24:21.131Z,2.60
2023-02-19T19:26:48.846Z,2.70
2023-02-19T19:29:17.241Z,1.70
2023-02-19T19:31:44.811Z,2.30
2023-02-19T19:34:12.513Z,2.30
2023-02-19T19:36:40.143Z,2.40
2023-02-19T19:39:08.240Z,2.30
2023-02-19T19:41:35.883Z,1.80
2023-02-19T19:44:03.688Z,3.60
2023-02-19T19:46:31.438Z,2.20
2023-02-19T19:48:59.123Z,2.00
2023-02-19T19:51:27.361Z,4.10
2023-02-19T19:53:55.075Z,4.20
2023-02-19T19:56:23.060Z,2.90
2023-02-19T19:58:50.599Z,3.00
2023-02-19T20:01:21.288Z,2.40
2023-02-19T20:03:49.296Z,2.40
2023-02-19T20:06:17.079Z,1.40
2023-02-19T20:08:44.619Z,1.50
2023-02-19T20:11:12.696Z,1.80
2023-02-19T20:13:40.394Z,1.90
2023-02-19T20:16:11.099Z,1.60
2023-02-19T20:18:38.726Z,1.40
2023-02-19T20:21:06.197Z,2.00
2023-02-19T20:23:33.915Z,2.30
2023-02-19T20:26:01.473Z,3.00
2023-02-19T20:28:29.233Z,2.30
2023-02-19T20:30:57.611Z,2.00
2023-02-19T20:33:25.393Z,2.60
2023-02-19T20:35:52.994Z,1.40
2023-02-19T20:38:20.594Z,1.60
2023-02-19T20:40:48.176Z,1.10
2023-02-19T20:43:15.651Z,0.90
2023-02-19T20:45:45.907Z,1.20
2023-02-19T20:48:13.589Z,0.80
2023-02-19T20:50:41.116Z,1.30
2023-02-19T20:53:08.758Z,1.30
2023-02-19T20:55:36.442Z,1.30
2023-02-19T20:58:03.938Z,1.40
2023-02-19T21:00:31.419Z,1.60
2023-02-19T21:02:59.212Z,1.40
2023-02-19T21:05:27.148Z,1.20
2023-02-19T21:07:55.338Z,1.40
2023-02-19T21:10:23.299Z,1.40
2023-02-19T21:12:52.348Z,1.40
2023-02-19T21:15:20.259Z,2.50
2023-02-19T21:17:48.089Z,2.60
2023-02-19T21:20:17.862Z,4.20
2023-02-19T21:22:45.459Z,3.90
2023-02-19T21:25:12.979Z,2.20
2023-02-19T21:27:40.504Z,1.90
2023-02-19T21:30:08.147Z,2.60
2023-02-19T21:32:35.733Z,3.70
2023-02-19T21:35:03.219Z,2.30
2023-02-19T21:37:30.696Z,1.50
2023-02-19T21:40:00.481Z,1.60
2023-02-19T21:42:28.293Z,2.10
2023-02-19T21:44:55.762Z,2.50
2023-02-19T21:47:23.320Z,2.20
2023-02-19T21:49:51.055Z,2.30
2023-02-19T21:52:18.592Z,1.50
2023-02-19T21:54:46.335Z,2.50
2023-02-19T21:57:13.827Z,1.90
2023-02-19T21:59:41.404Z,1.40
2023-02-19T22:02:08.957Z,2.80
2023-02-19T22:04:36.467Z,2.50
2023-02-19T22:07:03.962Z,1.80
2023-02-19T22:09:31.477Z,2.80
2023-02-19T22:11:58.968Z,2.40
2023-02-19T22:14:26.495Z,1.10
2023-02-19T22:16:54.099Z,2.40
2023-02-19T22:19:21.649Z,1.50
2023-02-19T22:21:49.179Z,1.30
2023-02-19T22:24:17.572Z,1.60
2023-02-19T22:26:45.653Z,0.80
2023-02-19T22:29:13.300Z,1.00
2023-02-19T22:31:41.160Z,1.10
2023-02-19T22:34:09.117Z,0.90
2023-02-19T22:36:40.307Z,1.10
2023-02-19T22:39:08.116Z,1.70
2023-02-19T22:41:36.004Z,1.50
2023-02-19T22:44:03.526Z,1.10
2023-02-19T22:46:31.266Z,1.20
2023-02-19T22:48:58.808Z,1.40
2023-02-19T22:51:26.341Z,1.40
2023-02-19T22:53:54.083Z,2.30
2023-02-19T22:56:22.355Z,1.70
2023-02-19T22:58:49.880Z,1.50
2023-02-19T23:01:17.447Z,1.10
2023-02-19T23:03:45.023Z,0.70
2023-02-19T23:06:12.738Z,0.50
2023-02-19T23:08:42.987Z,1.10
2023-02-19T23:11:10.644Z,1.10
2023-02-19T23:13:38.163Z,0.70
2023-02-19T23:16:06.480Z,1.00
2023-02-19T23:18:34.110Z,0.70
2023-02-19T23:21:01.607Z,0.90
2023-02-19T23:23:31.448Z,1.00
2023-02-19T23:25:58.910Z,0.90
2023-02-19T23:28:26.461Z,0.60
2023-02-19T23:30:54.354Z,0.70
2023-02-19T23:33:22.080Z,0.50
2023-02-19T23:35:49.611Z,0.80
2023-02-19T23:38:17.141Z,0.60
2023-02-19T23:40:45.356Z,1.20
2023-02-19T23:43:13.220Z,1.30
2023-02-19T23:45:40.857Z,0.80
2023-02-19T23:48:08.440Z,0.70
2023-02-19T23:50:36.045Z,0.70
2023-02-19T23:53:03.558Z,0.90
2023-02-19T23:55:31.199Z,0.90
2023-02-19T23:57:58.732Z,0.70
